Airfield :
LOGIN :

Register | Disclaimer

   EN    FR    IT 

 










Legend :    VFR   Marginal VFR   IFR   Intensive IFR   Very Intensive IFR
Visi :
Ceiling :
>= 8 km
>= 3000ft
5 to 8 km
1000 to 3000 ft
1500m to 5 km
500 to 1000 ft
800 to 1500m
200 to 500 ft
< 800m
< 200 ft
Symbols :   Thunderstorms  Fog  Heavy snow  Heavy precipitations  Wind > 20 kt
SIGMETs :     Misc.  Thunderstorms  Icing  Turbulence  Mountain Waves  Volcanic Ashes






- Airport Elevation : 174 ft
- IATA code : RYG


ENRY - Moss , Rygge

CURRENT METAR :
  • 140650Z 06006KT 9999 BKN005 03/02 Q1005

EXPIRED METARs :
  • 140620Z 06006KT 9999 BKN005 02/01 Q1005
  • 140550Z 04006KT 9999 BKN005 02/01 Q1004
  • 140520Z 02006KT 9000 SCT007 OVC046 02/01 Q1004
  • 140450Z AUTO 03004KT 9000NDV FEW007/// OVC047/// 02/01 Q1004
  • 140420Z AUTO 02004KT 8000NDV FEW007/// OVC043/// 02/01 Q1004
  • 140350Z AUTO 02005KT 8000NDV SCT005/// BKN042/// 02/01 Q1004

TAF TAF ENRY
Valid from the 14 at 06:00 until the 15 at 06:00 UTC


1406/1506 03005KT 9000 FEW008 BKN030
TEMPO 1406/1421 2500 SHRASN BR BKN008 SCT015CB
PROB30 1421/1506 0300 FG VV001



MET'MAP, your aeronautical weather chart ! - Copyright ORBIFLY December 2007 - Disclaimer

ORBIFLY MET'MAP TEAM :

Programming & Development : Alexandra Zaïnal
Concept & Development : Baudouin d'Aumeries
Co-Development & Prog : Marc-Olivier Méhu
Technical & hardware support : Manuel Goepfert

Contact : metmap@orbifly.com




SOURCES & CREDITS :

   NOAA